sensor_id;sensor_type;location;lat;lon;timestamp;P1;durP1;ratioP1;P2;durP2;ratioP2
15708;SDS011;7954;51.914;8.420;2022-11-15T00:01:15;5.10;;;4.60;;
15708;SDS011;7954;51.914;8.420;2022-11-15T00:03:45;4.37;;;4.07;;
15708;SDS011;7954;51.914;8.420;2022-11-15T00:06:15;5.00;;;4.50;;
15708;SDS011;7954;51.914;8.420;2022-11-15T00:08:42;4.80;;;4.23;;
15708;SDS011;7954;51.914;8.420;2022-11-15T00:11:11;4.67;;;4.27;;
15708;SDS011;7954;51.914;8.420;2022-11-15T00:13:43;5.13;;;4.63;;
15708;SDS011;7954;51.914;8.420;2022-11-15T00:16:11;4.80;;;4.20;;
15708;SDS011;7954;51.914;8.420;2022-11-15T00:18:39;5.17;;;4.73;;
15708;SDS011;7954;51.914;8.420;2022-11-15T00:21:15;5.00;;;4.50;;
15708;SDS011;7954;51.914;8.420;2022-11-15T00:23:44;5.70;;;4.73;;
15708;SDS011;7954;51.914;8.420;2022-11-15T00:26:13;4.50;;;4.10;;
15708;SDS011;7954;51.914;8.420;2022-11-15T00:28:43;5.30;;;4.80;;
15708;SDS011;7954;51.914;8.420;2022-11-15T00:31:13;4.50;;;4.10;;
15708;SDS011;7954;51.914;8.420;2022-11-15T00:33:43;4.20;;;3.80;;
15708;SDS011;7954;51.914;8.420;2022-11-15T00:36:11;4.40;;;4.00;;
15708;SDS011;7954;51.914;8.420;2022-11-15T00:38:40;4.60;;;4.20;;
15708;SDS011;7954;51.914;8.420;2022-11-15T00:41:08;4.43;;;4.03;;
15708;SDS011;7954;51.914;8.420;2022-11-15T00:43:37;4.33;;;4.00;;
15708;SDS011;7954;51.914;8.420;2022-11-15T00:46:08;4.80;;;4.40;;
15708;SDS011;7954;51.914;8.420;2022-11-15T00:48:36;4.80;;;3.83;;
15708;SDS011;7954;51.914;8.420;2022-11-15T00:51:04;4.67;;;3.97;;
15708;SDS011;7954;51.914;8.420;2022-11-15T00:53:33;4.17;;;3.77;;
15708;SDS011;7954;51.914;8.420;2022-11-15T00:56:01;4.23;;;3.83;;
15708;SDS011;7954;51.914;8.420;2022-11-15T00:58:30;4.67;;;4.20;;
15708;SDS011;7954;51.914;8.420;2022-11-15T01:01:04;4.33;;;3.93;;
15708;SDS011;7954;51.914;8.420;2022-11-15T01:03:35;4.70;;;4.30;;
15708;SDS011;7954;51.914;8.420;2022-11-15T01:06:05;4.17;;;3.77;;
15708;SDS011;7954;51.914;8.420;2022-11-15T01:08:34;4.07;;;3.67;;
15708;SDS011;7954;51.914;8.420;2022-11-15T01:11:02;3.90;;;3.60;;
15708;SDS011;7954;51.914;8.420;2022-11-15T01:13:31;4.03;;;3.63;;
15708;SDS011;7954;51.914;8.420;2022-11-15T01:16:05;3.83;;;3.37;;
15708;SDS011;7954;51.914;8.420;2022-11-15T01:18:37;4.47;;;4.07;;
15708;SDS011;7954;51.914;8.420;2022-11-15T01:21:06;3.73;;;3.43;;
15708;SDS011;7954;51.914;8.420;2022-11-15T01:23:36;3.63;;;3.33;;
15708;SDS011;7954;51.914;8.420;2022-11-15T01:26:05;3.80;;;3.50;;
15708;SDS011;7954;51.914;8.420;2022-11-15T01:28:35;3.90;;;3.60;;
15708;SDS011;7954;51.914;8.420;2022-11-15T01:31:05;3.80;;;3.50;;
15708;SDS011;7954;51.914;8.420;2022-11-15T01:33:37;4.23;;;3.87;;
15708;SDS011;7954;51.914;8.420;2022-11-15T01:36:06;4.03;;;3.63;;
15708;SDS011;7954;51.914;8.420;2022-11-15T01:38:36;3.97;;;3.67;;
15708;SDS011;7954;51.914;8.420;2022-11-15T01:41:04;4.70;;;4.13;;
15708;SDS011;7954;51.914;8.420;2022-11-15T01:43:33;4.83;;;3.40;;
15708;SDS011;7954;51.914;8.420;2022-11-15T01:46:03;4.17;;;3.60;;
15708;SDS011;7954;51.914;8.420;2022-11-15T01:48:34;5.40;;;3.90;;
15708;SDS011;7954;51.914;8.420;2022-11-15T01:51:10;4.17;;;3.50;;
15708;SDS011;7954;51.914;8.420;2022-11-15T01:53:42;4.67;;;3.97;;
15708;SDS011;7954;51.914;8.420;2022-11-15T01:56:14;4.40;;;4.00;;
15708;SDS011;7954;51.914;8.420;2022-11-15T01:58:46;5.00;;;4.17;;
15708;SDS011;7954;51.914;8.420;2022-11-15T02:01:15;4.33;;;3.70;;
15708;SDS011;7954;51.914;8.420;2022-11-15T02:03:44;4.53;;;3.77;;
15708;SDS011;7954;51.914;8.420;2022-11-15T02:06:18;5.43;;;4.13;;
15708;SDS011;7954;51.914;8.420;2022-11-15T02:08:48;4.37;;;3.97;;
15708;SDS011;7954;51.914;8.420;2022-11-15T02:11:17;4.67;;;4.20;;
15708;SDS011;7954;51.914;8.420;2022-11-15T02:13:45;4.50;;;4.10;;
15708;SDS011;7954;51.914;8.420;2022-11-15T02:16:14;3.73;;;3.43;;
15708;SDS011;7954;51.914;8.420;2022-11-15T02:18:50;4.70;;;3.97;;
15708;SDS011;7954;51.914;8.420;2022-11-15T02:21:26;4.90;;;4.50;;
15708;SDS011;7954;51.914;8.420;2022-11-15T02:27:58;4.90;;;4.17;;
15708;SDS011;7954;51.914;8.420;2022-11-15T02:30:41;4.67;;;4.27;;
15708;SDS011;7954;51.914;8.420;2022-11-15T02:33:15;4.93;;;4.10;;
15708;SDS011;7954;51.914;8.420;2022-11-15T02:35:57;5.90;;;4.50;;
15708;SDS011;7954;51.914;8.420;2022-11-15T02:38:29;4.70;;;4.20;;
15708;SDS011;7954;51.914;8.420;2022-11-15T02:41:02;4.87;;;4.37;;
15708;SDS011;7954;51.914;8.420;2022-11-15T02:43:36;5.17;;;4.63;;
15708;SDS011;7954;51.914;8.420;2022-11-15T02:46:29;5.10;;;4.40;;
15708;SDS011;7954;51.914;8.420;2022-11-15T02:49:29;5.07;;;4.57;;
15708;SDS011;7954;51.914;8.420;2022-11-15T02:52:01;5.57;;;4.43;;
15708;SDS011;7954;51.914;8.420;2022-11-15T02:54:30;4.30;;;3.90;;
15708;SDS011;7954;51.914;8.420;2022-11-15T02:57:00;4.60;;;4.20;;
15708;SDS011;7954;51.914;8.420;2022-11-15T03:02:28;4.83;;;4.37;;
15708;SDS011;7954;51.914;8.420;2022-11-15T03:05:09;4.63;;;4.23;;
15708;SDS011;7954;51.914;8.420;2022-11-15T03:07:50;6.10;;;4.90;;
15708;SDS011;7954;51.914;8.420;2022-11-15T03:10:30;4.40;;;3.97;;
15708;SDS011;7954;51.914;8.420;2022-11-15T03:13:06;5.37;;;4.67;;
15708;SDS011;7954;51.914;8.420;2022-11-15T03:15:43;5.77;;;4.93;;
15708;SDS011;7954;51.914;8.420;2022-11-15T03:18:21;5.77;;;5.17;;
15708;SDS011;7954;51.914;8.420;2022-11-15T03:20:51;6.27;;;4.90;;
15708;SDS011;7954;51.914;8.420;2022-11-15T03:23:20;5.40;;;4.90;;
15708;SDS011;7954;51.914;8.420;2022-11-15T03:25:50;5.73;;;5.17;;
15708;SDS011;7954;51.914;8.420;2022-11-15T03:28:20;5.20;;;4.70;;
15708;SDS011;7954;51.914;8.420;2022-11-15T03:30:51;6.77;;;5.33;;
15708;SDS011;7954;51.914;8.420;2022-11-15T03:33:23;6.90;;;5.60;;
15708;SDS011;7954;51.914;8.420;2022-11-15T03:35:52;5.40;;;4.90;;
15708;SDS011;7954;51.914;8.420;2022-11-15T03:38:22;6.53;;;5.57;;
15708;SDS011;7954;51.914;8.420;2022-11-15T03:40:53;5.50;;;5.00;;
15708;SDS011;7954;51.914;8.420;2022-11-15T03:43:28;5.97;;;5.07;;
15708;SDS011;7954;51.914;8.420;2022-11-15T03:46:00;5.70;;;5.20;;
15708;SDS011;7954;51.914;8.420;2022-11-15T03:48:35;5.87;;;5.30;;
15708;SDS011;7954;51.914;8.420;2022-11-15T03:51:08;6.17;;;5.57;;
15708;SDS011;7954;51.914;8.420;2022-11-15T03:53:38;5.97;;;5.43;;
15708;SDS011;7954;51.914;8.420;2022-11-15T03:56:06;5.60;;;5.10;;
15708;SDS011;7954;51.914;8.420;2022-11-15T03:58:34;5.90;;;5.37;;
15708;SDS011;7954;51.914;8.420;2022-11-15T04:01:05;5.80;;;5.30;;
15708;SDS011;7954;51.914;8.420;2022-11-15T04:03:35;6.10;;;5.50;;
15708;SDS011;7954;51.914;8.420;2022-11-15T04:06:03;6.77;;;6.10;;
15708;SDS011;7954;51.914;8.420;2022-11-15T04:08:31;7.70;;;6.17;;
15708;SDS011;7954;51.914;8.420;2022-11-15T04:10:59;6.93;;;6.23;;
15708;SDS011;7954;51.914;8.420;2022-11-15T04:13:28;5.90;;;5.33;;
15708;SDS011;7954;51.914;8.420;2022-11-15T04:15:57;6.10;;;5.50;;
15708;SDS011;7954;51.914;8.420;2022-11-15T04:18:25;5.97;;;5.43;;
15708;SDS011;7954;51.914;8.420;2022-11-15T04:20:56;6.60;;;5.83;;
15708;SDS011;7954;51.914;8.420;2022-11-15T04:23:41;5.87;;;5.30;;
15708;SDS011;7954;51.914;8.420;2022-11-15T04:26:26;5.60;;;5.10;;
15708;SDS011;7954;51.914;8.420;2022-11-15T04:28:54;6.10;;;5.50;;
15708;SDS011;7954;51.914;8.420;2022-11-15T04:31:40;6.53;;;5.83;;
15708;SDS011;7954;51.914;8.420;2022-11-15T04:34:13;6.03;;;5.43;;
15708;SDS011;7954;51.914;8.420;2022-11-15T04:36:42;6.23;;;5.63;;
15708;SDS011;7954;51.914;8.420;2022-11-15T04:39:27;6.70;;;6.10;;
15708;SDS011;7954;51.914;8.420;2022-11-15T04:41:57;7.07;;;6.37;;
15708;SDS011;7954;51.914;8.420;2022-11-15T04:44:26;9.03;;;6.60;;
15708;SDS011;7954;51.914;8.420;2022-11-15T04:46:54;7.27;;;6.57;;
15708;SDS011;7954;51.914;8.420;2022-11-15T04:49:22;7.17;;;6.20;;
15708;SDS011;7954;51.914;8.420;2022-11-15T04:51:52;6.70;;;6.00;;
15708;SDS011;7954;51.914;8.420;2022-11-15T04:54:20;7.00;;;6.37;;
15708;SDS011;7954;51.914;8.420;2022-11-15T04:56:48;6.77;;;6.23;;
15708;SDS011;7954;51.914;8.420;2022-11-15T04:59:17;6.83;;;5.70;;
15708;SDS011;7954;51.914;8.420;2022-11-15T05:01:45;6.57;;;5.83;;
15708;SDS011;7954;51.914;8.420;2022-11-15T05:04:14;6.67;;;6.07;;
15708;SDS011;7954;51.914;8.420;2022-11-15T05:06:50;7.83;;;6.60;;
15708;SDS011;7954;51.914;8.420;2022-11-15T05:09:20;5.73;;;5.23;;
15708;SDS011;7954;51.914;8.420;2022-11-15T05:11:48;6.40;;;5.80;;
15708;SDS011;7954;51.914;8.420;2022-11-15T05:14:16;6.70;;;5.70;;
15708;SDS011;7954;51.914;8.420;2022-11-15T05:16:44;7.00;;;6.33;;
15708;SDS011;7954;51.914;8.420;2022-11-15T05:19:12;8.90;;;6.47;;
15708;SDS011;7954;51.914;8.420;2022-11-15T05:21:41;6.20;;;5.70;;
15708;SDS011;7954;51.914;8.420;2022-11-15T05:24:12;6.60;;;6.00;;
15708;SDS011;7954;51.914;8.420;2022-11-15T05:26:40;7.20;;;6.50;;
15708;SDS011;7954;51.914;8.420;2022-11-15T05:29:08;6.53;;;5.93;;
15708;SDS011;7954;51.914;8.420;2022-11-15T05:31:39;6.53;;;5.97;;
15708;SDS011;7954;51.914;8.420;2022-11-15T05:34:07;6.30;;;5.80;;
15708;SDS011;7954;51.914;8.420;2022-11-15T05:36:36;6.50;;;5.90;;
15708;SDS011;7954;51.914;8.420;2022-11-15T05:39:05;6.23;;;5.63;;
15708;SDS011;7954;51.914;8.420;2022-11-15T05:41:37;5.97;;;5.47;;
15708;SDS011;7954;51.914;8.420;2022-11-15T05:44:09;6.07;;;5.53;;
15708;SDS011;7954;51.914;8.420;2022-11-15T05:46:40;6.13;;;5.57;;
15708;SDS011;7954;51.914;8.420;2022-11-15T05:49:10;6.17;;;5.57;;
15708;SDS011;7954;51.914;8.420;2022-11-15T05:51:41;5.73;;;5.20;;
15708;SDS011;7954;51.914;8.420;2022-11-15T05:54:12;6.53;;;5.53;;
15708;SDS011;7954;51.914;8.420;2022-11-15T05:56:43;6.57;;;5.43;;
15708;SDS011;7954;51.914;8.420;2022-11-15T05:59:12;6.07;;;5.57;;
15708;SDS011;7954;51.914;8.420;2022-11-15T06:01:40;6.00;;;5.50;;
15708;SDS011;7954;51.914;8.420;2022-11-15T06:04:09;6.03;;;5.50;;
15708;SDS011;7954;51.914;8.420;2022-11-15T06:06:37;5.93;;;5.43;;
15708;SDS011;7954;51.914;8.420;2022-11-15T06:09:04;6.40;;;5.80;;
15708;SDS011;7954;51.914;8.420;2022-11-15T06:11:32;6.37;;;5.70;;
15708;SDS011;7954;51.914;8.420;2022-11-15T06:14:02;5.67;;;5.20;;
15708;SDS011;7954;51.914;8.420;2022-11-15T06:16:30;6.43;;;5.83;;
15708;SDS011;7954;51.914;8.420;2022-11-15T06:18:58;5.93;;;5.33;;
15708;SDS011;7954;51.914;8.420;2022-11-15T06:21:26;5.23;;;4.83;;
15708;SDS011;7954;51.914;8.420;2022-11-15T06:23:55;6.50;;;5.43;;
15708;SDS011;7954;51.914;8.420;2022-11-15T06:26:23;5.73;;;5.20;;
15708;SDS011;7954;51.914;8.420;2022-11-15T06:28:52;5.80;;;5.30;;
15708;SDS011;7954;51.914;8.420;2022-11-15T06:31:23;6.37;;;5.80;;
15708;SDS011;7954;51.914;8.420;2022-11-15T06:33:51;6.57;;;6.00;;
15708;SDS011;7954;51.914;8.420;2022-11-15T06:36:18;6.33;;;5.73;;
15708;SDS011;7954;51.914;8.420;2022-11-15T06:38:47;6.33;;;5.73;;
15708;SDS011;7954;51.914;8.420;2022-11-15T06:41:15;5.50;;;5.10;;
15708;SDS011;7954;51.914;8.420;2022-11-15T06:43:45;5.90;;;5.40;;
15708;SDS011;7954;51.914;8.420;2022-11-15T06:46:13;5.73;;;5.23;;
15708;SDS011;7954;51.914;8.420;2022-11-15T06:48:43;6.33;;;4.90;;
15708;SDS011;7954;51.914;8.420;2022-11-15T06:51:11;5.27;;;4.80;;
15708;SDS011;7954;51.914;8.420;2022-11-15T06:53:39;6.80;;;5.50;;
15708;SDS011;7954;51.914;8.420;2022-11-15T06:56:07;6.47;;;5.27;;
15708;SDS011;7954;51.914;8.420;2022-11-15T06:58:35;5.47;;;4.97;;
15708;SDS011;7954;51.914;8.420;2022-11-15T07:01:04;5.40;;;5.00;;
15708;SDS011;7954;51.914;8.420;2022-11-15T07:03:34;6.23;;;5.63;;
15708;SDS011;7954;51.914;8.420;2022-11-15T07:06:05;6.20;;;5.60;;
15708;SDS011;7954;51.914;8.420;2022-11-15T07:08:33;6.07;;;5.50;;
15708;SDS011;7954;51.914;8.420;2022-11-15T07:11:03;6.63;;;5.93;;
15708;SDS011;7954;51.914;8.420;2022-11-15T07:13:32;6.30;;;5.77;;
15708;SDS011;7954;51.914;8.420;2022-11-15T07:16:02;6.97;;;6.37;;
15708;SDS011;7954;51.914;8.420;2022-11-15T07:18:33;5.77;;;5.27;;
15708;SDS011;7954;51.914;8.420;2022-11-15T07:21:02;5.67;;;5.27;;
15708;SDS011;7954;51.914;8.420;2022-11-15T07:23:33;5.53;;;5.03;;
15708;SDS011;7954;51.914;8.420;2022-11-15T07:26:04;5.60;;;5.10;;
15708;SDS011;7954;51.914;8.420;2022-11-15T07:28:32;6.30;;;5.40;;
15708;SDS011;7954;51.914;8.420;2022-11-15T07:31:03;6.93;;;5.67;;
15708;SDS011;7954;51.914;8.420;2022-11-15T07:33:31;6.57;;;5.40;;
15708;SDS011;7954;51.914;8.420;2022-11-15T07:36:01;5.87;;;5.37;;
15708;SDS011;7954;51.914;8.420;2022-11-15T07:38:30;5.70;;;5.13;;
15708;SDS011;7954;51.914;8.420;2022-11-15T07:41:06;6.10;;;5.50;;
15708;SDS011;7954;51.914;8.420;2022-11-15T07:43:34;5.57;;;5.07;;
15708;SDS011;7954;51.914;8.420;2022-11-15T07:46:04;5.67;;;5.17;;
15708;SDS011;7954;51.914;8.420;2022-11-15T07:48:35;5.77;;;5.27;;
15708;SDS011;7954;51.914;8.420;2022-11-15T07:51:11;6.90;;;5.27;;
15708;SDS011;7954;51.914;8.420;2022-11-15T07:53:40;5.20;;;4.70;;
15708;SDS011;7954;51.914;8.420;2022-11-15T07:56:11;5.37;;;4.20;;
15708;SDS011;7954;51.914;8.420;2022-11-15T07:58:39;5.50;;;4.80;;
15708;SDS011;7954;51.914;8.420;2022-11-15T08:01:09;4.97;;;4.47;;
15708;SDS011;7954;51.914;8.420;2022-11-15T08:03:39;4.80;;;4.40;;
15708;SDS011;7954;51.914;8.420;2022-11-15T08:06:07;4.27;;;3.87;;
15708;SDS011;7954;51.914;8.420;2022-11-15T08:08:36;4.60;;;4.20;;
15708;SDS011;7954;51.914;8.420;2022-11-15T08:11:04;4.57;;;4.20;;
15708;SDS011;7954;51.914;8.420;2022-11-15T08:13:34;5.27;;;4.73;;
15708;SDS011;7954;51.914;8.420;2022-11-15T08:16:03;4.40;;;4.03;;
15708;SDS011;7954;51.914;8.420;2022-11-15T08:18:32;4.50;;;4.10;;
15708;SDS011;7954;51.914;8.420;2022-11-15T08:21:00;4.43;;;4.03;;
15708;SDS011;7954;51.914;8.420;2022-11-15T08:23:29;6.50;;;3.87;;
15708;SDS011;7954;51.914;8.420;2022-11-15T08:25:59;3.97;;;3.57;;
15708;SDS011;7954;51.914;8.420;2022-11-15T08:28:29;3.53;;;3.23;;
15708;SDS011;7954;51.914;8.420;2022-11-15T08:30:59;4.03;;;3.73;;
15708;SDS011;7954;51.914;8.420;2022-11-15T08:33:27;3.53;;;3.23;;
15708;SDS011;7954;51.914;8.420;2022-11-15T08:35:57;3.43;;;3.13;;
15708;SDS011;7954;51.914;8.420;2022-11-15T08:38:26;3.40;;;3.10;;
15708;SDS011;7954;51.914;8.420;2022-11-15T08:40:59;3.10;;;2.80;;
15708;SDS011;7954;51.914;8.420;2022-11-15T08:43:28;2.83;;;2.60;;
15708;SDS011;7954;51.914;8.420;2022-11-15T08:45:57;2.80;;;2.60;;
15708;SDS011;7954;51.914;8.420;2022-11-15T08:48:27;2.77;;;2.40;;
15708;SDS011;7954;51.914;8.420;2022-11-15T08:50:55;2.50;;;2.30;;
15708;SDS011;7954;51.914;8.420;2022-11-15T08:53:23;2.60;;;2.40;;
15708;SDS011;7954;51.914;8.420;2022-11-15T08:55:51;2.30;;;2.00;;
15708;SDS011;7954;51.914;8.420;2022-11-15T08:58:19;2.30;;;2.10;;
15708;SDS011;7954;51.914;8.420;2022-11-15T09:00:47;2.53;;;2.30;;
15708;SDS011;7954;51.914;8.420;2022-11-15T09:03:16;2.40;;;2.20;;
15708;SDS011;7954;51.914;8.420;2022-11-15T09:05:46;2.10;;;2.00;;
15708;SDS011;7954;51.914;8.420;2022-11-15T09:08:14;1.77;;;1.67;;
15708;SDS011;7954;51.914;8.420;2022-11-15T09:11:03;2.20;;;1.80;;
15708;SDS011;7954;51.914;8.420;2022-11-15T09:13:32;2.07;;;1.90;;
15708;SDS011;7954;51.914;8.420;2022-11-15T09:16:00;1.93;;;1.70;;
15708;SDS011;7954;51.914;8.420;2022-11-15T09:18:29;1.53;;;1.43;;
15708;SDS011;7954;51.914;8.420;2022-11-15T09:21:00;1.90;;;1.70;;
15708;SDS011;7954;51.914;8.420;2022-11-15T09:23:29;2.00;;;1.80;;
15708;SDS011;7954;51.914;8.420;2022-11-15T09:25:58;1.80;;;1.70;;
15708;SDS011;7954;51.914;8.420;2022-11-15T09:28:29;1.63;;;1.53;;
15708;SDS011;7954;51.914;8.420;2022-11-15T09:30:57;1.60;;;1.47;;
15708;SDS011;7954;51.914;8.420;2022-11-15T09:33:26;2.37;;;1.90;;
15708;SDS011;7954;51.914;8.420;2022-11-15T09:35:59;1.83;;;1.50;;
15708;SDS011;7954;51.914;8.420;2022-11-15T09:38:29;1.67;;;1.53;;
15708;SDS011;7954;51.914;8.420;2022-11-15T09:41:15;1.53;;;1.43;;
15708;SDS011;7954;51.914;8.420;2022-11-15T09:44:13;1.50;;;1.40;;
15708;SDS011;7954;51.914;8.420;2022-11-15T09:46:55;2.70;;;1.40;;
15708;SDS011;7954;51.914;8.420;2022-11-15T09:49:29;2.20;;;1.37;;
15708;SDS011;7954;51.914;8.420;2022-11-15T09:52:00;1.60;;;1.50;;
15708;SDS011;7954;51.914;8.420;2022-11-15T09:54:28;1.17;;;1.10;;
15708;SDS011;7954;51.914;8.420;2022-11-15T09:57:18;1.40;;;1.30;;
15708;SDS011;7954;51.914;8.420;2022-11-15T09:59:58;1.40;;;1.20;;
15708;SDS011;7954;51.914;8.420;2022-11-15T10:02:56;1.43;;;1.33;;
15708;SDS011;7954;51.914;8.420;2022-11-15T10:05:32;1.43;;;1.20;;
15708;SDS011;7954;51.914;8.420;2022-11-15T10:08:10;1.27;;;1.17;;
15708;SDS011;7954;51.914;8.420;2022-11-15T10:10:49;1.30;;;1.20;;
15708;SDS011;7954;51.914;8.420;2022-11-15T10:13:43;1.33;;;1.23;;
15708;SDS011;7954;51.914;8.420;2022-11-15T10:16:17;1.30;;;1.20;;
15708;SDS011;7954;51.914;8.420;2022-11-15T10:18:59;1.77;;;1.30;;
15708;SDS011;7954;51.914;8.420;2022-11-15T10:21:35;1.30;;;1.20;;
15708;SDS011;7954;51.914;8.420;2022-11-15T10:24:13;1.30;;;1.20;;
15708;SDS011;7954;51.914;8.420;2022-11-15T10:26:48;1.17;;;1.17;;
15708;SDS011;7954;51.914;8.420;2022-11-15T10:29:18;1.20;;;1.10;;
15708;SDS011;7954;51.914;8.420;2022-11-15T10:31:52;1.07;;;1.00;;
15708;SDS011;7954;51.914;8.420;2022-11-15T10:34:21;1.23;;;1.13;;
15708;SDS011;7954;51.914;8.420;2022-11-15T10:36:54;1.17;;;1.00;;
15708;SDS011;7954;51.914;8.420;2022-11-15T10:39:25;1.10;;;1.00;;
15708;SDS011;7954;51.914;8.420;2022-11-15T10:41:53;1.10;;;1.00;;
15708;SDS011;7954;51.914;8.420;2022-11-15T10:44:24;1.17;;;1.03;;
15708;SDS011;7954;51.914;8.420;2022-11-15T10:49:58;1.20;;;1.10;;
15708;SDS011;7954;51.914;8.420;2022-11-15T10:52:28;1.33;;;1.03;;
15708;SDS011;7954;51.914;8.420;2022-11-15T10:55:01;1.20;;;1.10;;
15708;SDS011;7954;51.914;8.420;2022-11-15T10:57:33;1.10;;;1.00;;
15708;SDS011;7954;51.914;8.420;2022-11-15T11:00:05;1.40;;;1.30;;
15708;SDS011;7954;51.914;8.420;2022-11-15T11:02:36;1.50;;;1.10;;
15708;SDS011;7954;51.914;8.420;2022-11-15T11:05:06;2.13;;;1.40;;
15708;SDS011;7954;51.914;8.420;2022-11-15T11:07:56;1.97;;;1.20;;
15708;SDS011;7954;51.914;8.420;2022-11-15T11:10:27;1.03;;;1.03;;
15708;SDS011;7954;51.914;8.420;2022-11-15T11:13:21;1.40;;;1.27;;
15708;SDS011;7954;51.914;8.420;2022-11-15T11:15:52;1.47;;;1.10;;
15708;SDS011;7954;51.914;8.420;2022-11-15T11:18:26;1.37;;;1.20;;
15708;SDS011;7954;51.914;8.420;2022-11-15T11:21:02;1.30;;;1.20;;
15708;SDS011;7954;51.914;8.420;2022-11-15T11:23:38;1.43;;;1.33;;
15708;SDS011;7954;51.914;8.420;2022-11-15T11:26:23;1.43;;;1.33;;
15708;SDS011;7954;51.914;8.420;2022-11-15T11:29:14;1.10;;;1.10;;
15708;SDS011;7954;51.914;8.420;2022-11-15T11:31:54;1.50;;;1.40;;
15708;SDS011;7954;51.914;8.420;2022-11-15T11:34:31;1.53;;;1.20;;
15708;SDS011;7954;51.914;8.420;2022-11-15T11:37:09;1.40;;;1.30;;
15708;SDS011;7954;51.914;8.420;2022-11-15T11:39:44;1.37;;;1.27;;
15708;SDS011;7954;51.914;8.420;2022-11-15T11:42:23;2.33;;;1.30;;
15708;SDS011;7954;51.914;8.420;2022-11-15T11:45:00;1.47;;;1.37;;
15708;SDS011;7954;51.914;8.420;2022-11-15T11:47:40;1.13;;;1.03;;
15708;SDS011;7954;51.914;8.420;2022-11-15T11:50:15;1.30;;;1.20;;
15708;SDS011;7954;51.914;8.420;2022-11-15T11:52:50;2.40;;;1.83;;
15708;SDS011;7954;51.914;8.420;2022-11-15T11:55:31;1.50;;;1.30;;
15708;SDS011;7954;51.914;8.420;2022-11-15T11:58:06;1.30;;;1.20;;
15708;SDS011;7954;51.914;8.420;2022-11-15T12:00:41;1.10;;;1.00;;
15708;SDS011;7954;51.914;8.420;2022-11-15T12:03:20;2.20;;;1.53;;
15708;SDS011;7954;51.914;8.420;2022-11-15T12:05:56;1.73;;;1.37;;
15708;SDS011;7954;51.914;8.420;2022-11-15T12:08:30;1.50;;;1.23;;
15708;SDS011;7954;51.914;8.420;2022-11-15T12:11:06;1.30;;;1.20;;
15708;SDS011;7954;51.914;8.420;2022-11-15T12:13:39;2.00;;;1.70;;
15708;SDS011;7954;51.914;8.420;2022-11-15T12:16:11;1.30;;;1.20;;
15708;SDS011;7954;51.914;8.420;2022-11-15T12:18:43;1.80;;;1.43;;
15708;SDS011;7954;51.914;8.420;2022-11-15T12:21:16;1.90;;;1.30;;
15708;SDS011;7954;51.914;8.420;2022-11-15T12:23:54;1.57;;;1.30;;
15708;SDS011;7954;51.914;8.420;2022-11-15T12:26:31;1.33;;;1.23;;
15708;SDS011;7954;51.914;8.420;2022-11-15T12:29:05;4.47;;;1.43;;
15708;SDS011;7954;51.914;8.420;2022-11-15T12:31:41;1.40;;;1.30;;
15708;SDS011;7954;51.914;8.420;2022-11-15T12:34:15;1.30;;;1.20;;
15708;SDS011;7954;51.914;8.420;2022-11-15T12:37:02;1.40;;;1.30;;
15708;SDS011;7954;51.914;8.420;2022-11-15T12:40:30;1.30;;;1.20;;
15708;SDS011;7954;51.914;8.420;2022-11-15T12:43:03;1.40;;;1.30;;
15708;SDS011;7954;51.914;8.420;2022-11-15T12:45:40;1.20;;;1.10;;
15708;SDS011;7954;51.914;8.420;2022-11-15T12:54:54;1.30;;;1.20;;
15708;SDS011;7954;51.914;8.420;2022-11-15T12:57:37;2.07;;;1.20;;
15708;SDS011;7954;51.914;8.420;2022-11-15T13:03:21;1.23;;;1.13;;
15708;SDS011;7954;51.914;8.420;2022-11-15T13:06:04;1.70;;;1.17;;
15708;SDS011;7954;51.914;8.420;2022-11-15T13:08:35;2.47;;;1.33;;
15708;SDS011;7954;51.914;8.420;2022-11-15T13:17:20;1.00;;;1.00;;
15708;SDS011;7954;51.914;8.420;2022-11-15T13:19:53;2.50;;;1.20;;
15708;SDS011;7954;51.914;8.420;2022-11-15T13:22:25;3.57;;;1.60;;
15708;SDS011;7954;51.914;8.420;2022-11-15T13:25:17;1.77;;;1.63;;
15708;SDS011;7954;51.914;8.420;2022-11-15T13:27:49;2.03;;;1.63;;
15708;SDS011;7954;51.914;8.420;2022-11-15T13:30:21;1.10;;;1.00;;
15708;SDS011;7954;51.914;8.420;2022-11-15T13:32:53;1.20;;;1.00;;
15708;SDS011;7954;51.914;8.420;2022-11-15T13:35:22;1.10;;;1.00;;
15708;SDS011;7954;51.914;8.420;2022-11-15T13:37:51;1.50;;;1.20;;
15708;SDS011;7954;51.914;8.420;2022-11-15T13:40:21;3.50;;;1.20;;
15708;SDS011;7954;51.914;8.420;2022-11-15T13:42:53;1.93;;;0.97;;
15708;SDS011;7954;51.914;8.420;2022-11-15T13:45:23;1.77;;;1.23;;
15708;SDS011;7954;51.914;8.420;2022-11-15T13:47:57;1.90;;;1.20;;
15708;SDS011;7954;51.914;8.420;2022-11-15T13:50:26;2.10;;;1.40;;
15708;SDS011;7954;51.914;8.420;2022-11-15T13:52:58;2.80;;;1.10;;
15708;SDS011;7954;51.914;8.420;2022-11-15T13:55:30;1.20;;;1.10;;
15708;SDS011;7954;51.914;8.420;2022-11-15T13:58:00;4.43;;;1.27;;
15708;SDS011;7954;51.914;8.420;2022-11-15T14:00:34;1.67;;;1.20;;
15708;SDS011;7954;51.914;8.420;2022-11-15T14:03:12;1.50;;;1.10;;
15708;SDS011;7954;51.914;8.420;2022-11-15T14:05:44;1.47;;;1.33;;
15708;SDS011;7954;51.914;8.420;2022-11-15T14:08:29;1.90;;;1.13;;
15708;SDS011;7954;51.914;8.420;2022-11-15T14:11:08;2.13;;;1.30;;
15708;SDS011;7954;51.914;8.420;2022-11-15T14:13:40;1.80;;;1.30;;
15708;SDS011;7954;51.914;8.420;2022-11-15T14:16:13;2.73;;;0.83;;
15708;SDS011;7954;51.914;8.420;2022-11-15T14:18:44;1.20;;;1.10;;
15708;SDS011;7954;51.914;8.420;2022-11-15T14:21:14;1.37;;;1.10;;
15708;SDS011;7954;51.914;8.420;2022-11-15T14:23:43;1.20;;;1.10;;
15708;SDS011;7954;51.914;8.420;2022-11-15T14:26:25;1.60;;;1.10;;
15708;SDS011;7954;51.914;8.420;2022-11-15T14:28:55;1.47;;;1.20;;
15708;SDS011;7954;51.914;8.420;2022-11-15T14:31:23;1.50;;;1.10;;
15708;SDS011;7954;51.914;8.420;2022-11-15T14:33:53;1.77;;;1.40;;
15708;SDS011;7954;51.914;8.420;2022-11-15T14:36:20;1.20;;;1.10;;
15708;SDS011;7954;51.914;8.420;2022-11-15T14:38:49;1.57;;;1.33;;
15708;SDS011;7954;51.914;8.420;2022-11-15T14:41:19;2.53;;;1.37;;
15708;SDS011;7954;51.914;8.420;2022-11-15T14:43:49;1.20;;;1.07;;
15708;SDS011;7954;51.914;8.420;2022-11-15T14:46:18;1.63;;;1.50;;
15708;SDS011;7954;51.914;8.420;2022-11-15T14:48:46;2.20;;;1.30;;
15708;SDS011;7954;51.914;8.420;2022-11-15T14:51:16;1.57;;;1.20;;
15708;SDS011;7954;51.914;8.420;2022-11-15T14:53:45;3.17;;;1.17;;
15708;SDS011;7954;51.914;8.420;2022-11-15T14:56:15;1.57;;;1.30;;
15708;SDS011;7954;51.914;8.420;2022-11-15T14:58:42;1.90;;;1.23;;
15708;SDS011;7954;51.914;8.420;2022-11-15T15:01:12;1.63;;;1.10;;
15708;SDS011;7954;51.914;8.420;2022-11-15T15:03:41;1.83;;;1.20;;
15708;SDS011;7954;51.914;8.420;2022-11-15T15:06:10;1.37;;;1.00;;
15708;SDS011;7954;51.914;8.420;2022-11-15T15:08:45;1.47;;;1.20;;
15708;SDS011;7954;51.914;8.420;2022-11-15T15:11:14;1.30;;;0.97;;
15708;SDS011;7954;51.914;8.420;2022-11-15T15:13:45;1.37;;;1.07;;
15708;SDS011;7954;51.914;8.420;2022-11-15T15:16:13;1.53;;;1.20;;
15708;SDS011;7954;51.914;8.420;2022-11-15T15:18:41;2.47;;;1.10;;
15708;SDS011;7954;51.914;8.420;2022-11-15T15:21:15;1.17;;;0.93;;
15708;SDS011;7954;51.914;8.420;2022-11-15T15:23:49;1.63;;;1.10;;
15708;SDS011;7954;51.914;8.420;2022-11-15T15:26:17;1.93;;;1.10;;
15708;SDS011;7954;51.914;8.420;2022-11-15T15:28:45;2.27;;;1.20;;
15708;SDS011;7954;51.914;8.420;2022-11-15T15:31:14;1.20;;;1.10;;
15708;SDS011;7954;51.914;8.420;2022-11-15T15:33:42;1.20;;;1.10;;
15708;SDS011;7954;51.914;8.420;2022-11-15T15:36:11;1.40;;;1.30;;
15708;SDS011;7954;51.914;8.420;2022-11-15T15:38:40;5.67;;;1.73;;
15708;SDS011;7954;51.914;8.420;2022-11-15T15:41:11;3.47;;;1.67;;
15708;SDS011;7954;51.914;8.420;2022-11-15T15:43:40;1.80;;;1.43;;
15708;SDS011;7954;51.914;8.420;2022-11-15T15:46:09;2.57;;;1.60;;
15708;SDS011;7954;51.914;8.420;2022-11-15T15:48:39;1.83;;;1.70;;
15708;SDS011;7954;51.914;8.420;2022-11-15T15:51:07;1.70;;;1.60;;
15708;SDS011;7954;51.914;8.420;2022-11-15T15:53:44;1.80;;;1.70;;
15708;SDS011;7954;51.914;8.420;2022-11-15T15:56:14;2.07;;;1.70;;